sensor_id;sensor_type;location;lat;lon;timestamp;P1;durP1;ratioP1;P2;durP2;ratioP2
55718;SDS011;41623;46.104;19.656;2022-12-10T00:02:25;1.83;;;1.63;;
55718;SDS011;41623;46.104;19.656;2022-12-10T00:04:51;1.48;;;1.38;;
55718;SDS011;41623;46.104;19.656;2022-12-10T00:07:17;2.58;;;1.88;;
55718;SDS011;41623;46.104;19.656;2022-12-10T00:09:44;10.50;;;1.70;;
55718;SDS011;41623;46.104;19.656;2022-12-10T00:12:10;0.98;;;0.98;;
55718;SDS011;41623;46.104;19.656;2022-12-10T00:14:36;2.60;;;1.73;;
55718;SDS011;41623;46.104;19.656;2022-12-10T00:17:02;2.03;;;1.88;;
55718;SDS011;41623;46.104;19.656;2022-12-10T00:19:28;3.45;;;2.05;;
55718;SDS011;41623;46.104;19.656;2022-12-10T00:21:54;1.67;;;1.20;;
55718;SDS011;41623;46.104;19.656;2022-12-10T00:24:22;4.57;;;1.73;;
55718;SDS011;41623;46.104;19.656;2022-12-10T00:26:48;1.30;;;1.23;;
55718;SDS011;41623;46.104;19.656;2022-12-10T00:29:14;2.03;;;1.80;;
55718;SDS011;41623;46.104;19.656;2022-12-10T00:31:40;3.30;;;1.67;;
55718;SDS011;41623;46.104;19.656;2022-12-10T00:34:07;5.00;;;2.55;;
55718;SDS011;41623;46.104;19.656;2022-12-10T00:36:34;2.63;;;1.95;;
55718;SDS011;41623;46.104;19.656;2022-12-10T00:39:01;1.63;;;1.48;;
55718;SDS011;41623;46.104;19.656;2022-12-10T00:41:27;1.05;;;1.02;;
55718;SDS011;41623;46.104;19.656;2022-12-10T00:43:53;1.45;;;1.35;;
55718;SDS011;41623;46.104;19.656;2022-12-10T00:46:19;1.33;;;1.15;;
55718;SDS011;41623;46.104;19.656;2022-12-10T00:48:46;1.42;;;1.10;;
55718;SDS011;41623;46.104;19.656;2022-12-10T00:51:14;2.70;;;1.60;;
55718;SDS011;41623;46.104;19.656;2022-12-10T00:53:41;8.27;;;1.92;;
55718;SDS011;41623;46.104;19.656;2022-12-10T00:56:08;2.05;;;1.45;;
55718;SDS011;41623;46.104;19.656;2022-12-10T00:58:34;1.77;;;1.42;;
55718;SDS011;41623;46.104;19.656;2022-12-10T01:03:33;3.00;;;1.58;;
55718;SDS011;41623;46.104;19.656;2022-12-10T01:06:07;1.42;;;1.23;;
55718;SDS011;41623;46.104;19.656;2022-12-10T01:08:33;1.63;;;1.45;;
55718;SDS011;41623;46.104;19.656;2022-12-10T01:10:59;2.88;;;1.48;;
55718;SDS011;41623;46.104;19.656;2022-12-10T01:13:26;0.95;;;0.95;;
55718;SDS011;41623;46.104;19.656;2022-12-10T01:15:52;0.90;;;0.90;;
55718;SDS011;41623;46.104;19.656;2022-12-10T01:18:18;1.17;;;1.02;;
55718;SDS011;41623;46.104;19.656;2022-12-10T01:20:44;1.10;;;1.10;;
55718;SDS011;41623;46.104;19.656;2022-12-10T01:23:10;4.00;;;2.17;;
55718;SDS011;41623;46.104;19.656;2022-12-10T01:25:36;4.70;;;1.48;;
55718;SDS011;41623;46.104;19.656;2022-12-10T01:28:02;1.08;;;1.00;;
55718;SDS011;41623;46.104;19.656;2022-12-10T01:30:28;1.83;;;1.48;;
55718;SDS011;41623;46.104;19.656;2022-12-10T01:32:54;2.50;;;1.48;;
55718;SDS011;41623;46.104;19.656;2022-12-10T01:35:20;1.55;;;1.35;;
55718;SDS011;41623;46.104;19.656;2022-12-10T01:37:46;3.03;;;1.88;;
55718;SDS011;41623;46.104;19.656;2022-12-10T01:40:12;2.33;;;1.55;;
55718;SDS011;41623;46.104;19.656;2022-12-10T01:42:38;2.47;;;1.73;;
55718;SDS011;41623;46.104;19.656;2022-12-10T01:45:06;2.08;;;1.85;;
55718;SDS011;41623;46.104;19.656;2022-12-10T01:47:32;3.70;;;1.92;;
55718;SDS011;41623;46.104;19.656;2022-12-10T01:49:58;2.78;;;1.55;;
55718;SDS011;41623;46.104;19.656;2022-12-10T01:52:25;2.42;;;1.85;;
55718;SDS011;41623;46.104;19.656;2022-12-10T01:54:51;1.35;;;1.25;;
55718;SDS011;41623;46.104;19.656;2022-12-10T01:57:19;1.48;;;1.35;;
55718;SDS011;41623;46.104;19.656;2022-12-10T01:59:48;3.15;;;1.70;;
55718;SDS011;41623;46.104;19.656;2022-12-10T02:17:30;2.25;;;1.70;;
55718;SDS011;41623;46.104;19.656;2022-12-10T02:22:23;1.73;;;1.42;;
55718;SDS011;41623;46.104;19.656;2022-12-10T02:24:51;3.05;;;2.38;;
55718;SDS011;41623;46.104;19.656;2022-12-10T02:27:26;2.15;;;1.95;;
55718;SDS011;41623;46.104;19.656;2022-12-10T02:29:53;4.28;;;2.33;;
55718;SDS011;41623;46.104;19.656;2022-12-10T02:32:22;2.33;;;1.90;;
55718;SDS011;41623;46.104;19.656;2022-12-10T02:34:53;4.78;;;2.85;;
55718;SDS011;41623;46.104;19.656;2022-12-10T02:37:22;2.58;;;2.00;;
55718;SDS011;41623;46.104;19.656;2022-12-10T02:39:50;3.03;;;2.10;;
55718;SDS011;41623;46.104;19.656;2022-12-10T02:42:17;2.97;;;2.33;;
55718;SDS011;41623;46.104;19.656;2022-12-10T02:44:45;4.13;;;2.08;;
55718;SDS011;41623;46.104;19.656;2022-12-10T02:47:12;4.00;;;2.67;;
55718;SDS011;41623;46.104;19.656;2022-12-10T02:49:39;3.33;;;2.58;;
55718;SDS011;41623;46.104;19.656;2022-12-10T02:52:09;3.08;;;2.50;;
55718;SDS011;41623;46.104;19.656;2022-12-10T02:54:39;3.75;;;2.25;;
55718;SDS011;41623;46.104;19.656;2022-12-10T02:57:14;5.85;;;3.13;;
55718;SDS011;41623;46.104;19.656;2022-12-10T03:02:15;5.50;;;2.53;;
55718;SDS011;41623;46.104;19.656;2022-12-10T03:04:46;3.10;;;1.70;;
55718;SDS011;41623;46.104;19.656;2022-12-10T03:07:16;3.63;;;2.10;;
55718;SDS011;41623;46.104;19.656;2022-12-10T03:09:53;6.22;;;2.05;;
55718;SDS011;41623;46.104;19.656;2022-12-10T03:12:25;1.85;;;1.65;;
55718;SDS011;41623;46.104;19.656;2022-12-10T03:14:57;3.35;;;2.08;;
55718;SDS011;41623;46.104;19.656;2022-12-10T03:17:24;1.67;;;1.30;;
55718;SDS011;41623;46.104;19.656;2022-12-10T03:19:52;2.38;;;1.77;;
55718;SDS011;41623;46.104;19.656;2022-12-10T03:22:20;4.30;;;2.33;;
55718;SDS011;41623;46.104;19.656;2022-12-10T03:24:46;2.67;;;1.83;;
55718;SDS011;41623;46.104;19.656;2022-12-10T03:27:13;1.75;;;1.60;;
55718;SDS011;41623;46.104;19.656;2022-12-10T03:29:41;4.68;;;2.03;;
55718;SDS011;41623;46.104;19.656;2022-12-10T03:32:09;3.60;;;2.10;;
55718;SDS011;41623;46.104;19.656;2022-12-10T03:34:36;4.13;;;2.42;;
55718;SDS011;41623;46.104;19.656;2022-12-10T03:37:03;5.50;;;2.60;;
55718;SDS011;41623;46.104;19.656;2022-12-10T03:39:29;1.48;;;1.35;;
55718;SDS011;41623;46.104;19.656;2022-12-10T03:41:55;8.20;;;2.10;;
55718;SDS011;41623;46.104;19.656;2022-12-10T03:44:28;4.00;;;2.10;;
55718;SDS011;41623;46.104;19.656;2022-12-10T03:46:55;3.13;;;1.90;;
55718;SDS011;41623;46.104;19.656;2022-12-10T03:49:21;2.38;;;1.58;;
55718;SDS011;41623;46.104;19.656;2022-12-10T03:51:47;2.30;;;1.98;;
55718;SDS011;41623;46.104;19.656;2022-12-10T03:54:13;3.40;;;2.15;;
55718;SDS011;41623;46.104;19.656;2022-12-10T03:56:39;2.47;;;1.67;;
55718;SDS011;41623;46.104;19.656;2022-12-10T03:59:05;3.45;;;1.63;;
55718;SDS011;41623;46.104;19.656;2022-12-10T04:01:31;2.70;;;1.95;;
55718;SDS011;41623;46.104;19.656;2022-12-10T04:03:57;4.55;;;2.03;;
55718;SDS011;41623;46.104;19.656;2022-12-10T04:06:23;5.15;;;2.33;;
55718;SDS011;41623;46.104;19.656;2022-12-10T04:08:49;1.98;;;1.77;;
55718;SDS011;41623;46.104;19.656;2022-12-10T04:11:17;4.07;;;1.35;;
55718;SDS011;41623;46.104;19.656;2022-12-10T04:13:43;3.50;;;1.88;;
55718;SDS011;41623;46.104;19.656;2022-12-10T04:16:29;2.88;;;2.25;;
55718;SDS011;41623;46.104;19.656;2022-12-10T04:19:00;2.72;;;2.42;;
55718;SDS011;41623;46.104;19.656;2022-12-10T04:21:26;4.63;;;2.10;;
55718;SDS011;41623;46.104;19.656;2022-12-10T04:24:11;1.52;;;1.42;;
55718;SDS011;41623;46.104;19.656;2022-12-10T04:26:57;2.30;;;1.92;;
55718;SDS011;41623;46.104;19.656;2022-12-10T04:29:25;7.00;;;3.10;;
55718;SDS011;41623;46.104;19.656;2022-12-10T04:31:51;7.43;;;3.58;;
55718;SDS011;41623;46.104;19.656;2022-12-10T04:34:18;3.42;;;2.38;;
55718;SDS011;41623;46.104;19.656;2022-12-10T04:36:44;4.25;;;2.28;;
55718;SDS011;41623;46.104;19.656;2022-12-10T04:39:10;2.60;;;2.00;;
55718;SDS011;41623;46.104;19.656;2022-12-10T04:41:38;3.80;;;2.88;;
55718;SDS011;41623;46.104;19.656;2022-12-10T04:44:05;3.45;;;3.15;;
55718;SDS011;41623;46.104;19.656;2022-12-10T04:46:31;3.67;;;1.80;;
55718;SDS011;41623;46.104;19.656;2022-12-10T04:48:57;3.05;;;2.33;;
55718;SDS011;41623;46.104;19.656;2022-12-10T04:51:23;2.80;;;1.83;;
55718;SDS011;41623;46.104;19.656;2022-12-10T04:53:50;1.63;;;1.52;;
55718;SDS011;41623;46.104;19.656;2022-12-10T04:56:16;4.10;;;2.55;;
55718;SDS011;41623;46.104;19.656;2022-12-10T04:58:43;5.65;;;2.35;;
55718;SDS011;41623;46.104;19.656;2022-12-10T05:01:09;4.57;;;2.92;;
55718;SDS011;41623;46.104;19.656;2022-12-10T05:03:36;4.43;;;2.90;;
55718;SDS011;41623;46.104;19.656;2022-12-10T05:06:07;5.35;;;3.95;;
55718;SDS011;41623;46.104;19.656;2022-12-10T05:08:33;4.78;;;3.25;;
55718;SDS011;41623;46.104;19.656;2022-12-10T05:11:00;3.03;;;2.15;;
55718;SDS011;41623;46.104;19.656;2022-12-10T05:13:27;3.88;;;2.67;;
55718;SDS011;41623;46.104;19.656;2022-12-10T05:15:53;4.75;;;2.70;;
55718;SDS011;41623;46.104;19.656;2022-12-10T05:18:19;4.93;;;2.75;;
55718;SDS011;41623;46.104;19.656;2022-12-10T05:20:45;6.78;;;3.53;;
55718;SDS011;41623;46.104;19.656;2022-12-10T05:23:11;4.72;;;2.72;;
55718;SDS011;41623;46.104;19.656;2022-12-10T05:28:25;4.05;;;2.63;;
55718;SDS011;41623;46.104;19.656;2022-12-10T05:30:51;5.82;;;3.33;;
55718;SDS011;41623;46.104;19.656;2022-12-10T05:33:17;6.70;;;4.20;;
55718;SDS011;41623;46.104;19.656;2022-12-10T05:35:43;3.58;;;2.95;;
55718;SDS011;41623;46.104;19.656;2022-12-10T05:38:09;12.57;;;3.60;;
55718;SDS011;41623;46.104;19.656;2022-12-10T05:40:36;5.95;;;3.88;;
55718;SDS011;41623;46.104;19.656;2022-12-10T05:43:02;3.22;;;2.60;;
55718;SDS011;41623;46.104;19.656;2022-12-10T05:45:28;5.97;;;4.00;;
55718;SDS011;41623;46.104;19.656;2022-12-10T05:47:57;6.30;;;2.53;;
55718;SDS011;41623;46.104;19.656;2022-12-10T05:50:23;7.63;;;3.42;;
55718;SDS011;41623;46.104;19.656;2022-12-10T05:52:52;7.60;;;4.30;;
55718;SDS011;41623;46.104;19.656;2022-12-10T05:55:18;10.70;;;4.00;;
55718;SDS011;41623;46.104;19.656;2022-12-10T05:57:44;5.05;;;3.70;;
55718;SDS011;41623;46.104;19.656;2022-12-10T06:00:10;4.82;;;3.20;;
55718;SDS011;41623;46.104;19.656;2022-12-10T06:02:37;7.85;;;4.25;;
55718;SDS011;41623;46.104;19.656;2022-12-10T06:05:04;6.45;;;3.42;;
55718;SDS011;41623;46.104;19.656;2022-12-10T06:07:30;8.15;;;4.20;;
55718;SDS011;41623;46.104;19.656;2022-12-10T06:09:56;7.43;;;4.20;;
55718;SDS011;41623;46.104;19.656;2022-12-10T06:12:22;6.40;;;4.22;;
55718;SDS011;41623;46.104;19.656;2022-12-10T06:14:48;5.00;;;4.00;;
55718;SDS011;41623;46.104;19.656;2022-12-10T06:17:14;8.23;;;4.50;;
55718;SDS011;41623;46.104;19.656;2022-12-10T06:19:40;7.63;;;4.03;;
55718;SDS011;41623;46.104;19.656;2022-12-10T06:22:06;6.00;;;3.90;;
55718;SDS011;41623;46.104;19.656;2022-12-10T06:24:32;17.92;;;6.25;;
55718;SDS011;41623;46.104;19.656;2022-12-10T06:26:58;6.03;;;4.82;;
55718;SDS011;41623;46.104;19.656;2022-12-10T06:29:24;12.00;;;5.03;;
55718;SDS011;41623;46.104;19.656;2022-12-10T06:31:50;17.65;;;6.55;;
55718;SDS011;41623;46.104;19.656;2022-12-10T06:34:17;23.08;;;7.93;;
55718;SDS011;41623;46.104;19.656;2022-12-10T06:36:43;14.68;;;6.10;;
55718;SDS011;41623;46.104;19.656;2022-12-10T06:39:09;18.83;;;7.72;;
55718;SDS011;41623;46.104;19.656;2022-12-10T06:41:35;12.73;;;5.85;;
55718;SDS011;41623;46.104;19.656;2022-12-10T06:44:01;11.02;;;5.80;;
55718;SDS011;41623;46.104;19.656;2022-12-10T06:46:27;10.05;;;5.38;;
55718;SDS011;41623;46.104;19.656;2022-12-10T06:48:53;18.85;;;6.25;;
55718;SDS011;41623;46.104;19.656;2022-12-10T06:51:19;11.63;;;6.13;;
55718;SDS011;41623;46.104;19.656;2022-12-10T06:53:46;10.15;;;5.60;;
55718;SDS011;41623;46.104;19.656;2022-12-10T06:56:13;7.32;;;5.68;;
55718;SDS011;41623;46.104;19.656;2022-12-10T06:58:39;15.48;;;6.88;;
55718;SDS011;41623;46.104;19.656;2022-12-10T07:01:11;12.32;;;6.30;;
55718;SDS011;41623;46.104;19.656;2022-12-10T07:03:37;9.45;;;6.43;;
55718;SDS011;41623;46.104;19.656;2022-12-10T07:06:04;8.63;;;5.60;;
55718;SDS011;41623;46.104;19.656;2022-12-10T07:08:30;11.77;;;6.68;;
55718;SDS011;41623;46.104;19.656;2022-12-10T07:10:56;15.32;;;6.40;;
55718;SDS011;41623;46.104;19.656;2022-12-10T07:13:23;11.63;;;6.28;;
55718;SDS011;41623;46.104;19.656;2022-12-10T07:15:49;9.35;;;6.10;;
55718;SDS011;41623;46.104;19.656;2022-12-10T07:18:15;8.40;;;5.93;;
55718;SDS011;41623;46.104;19.656;2022-12-10T07:20:41;19.70;;;7.20;;
55718;SDS011;41623;46.104;19.656;2022-12-10T07:23:07;8.60;;;6.18;;
55718;SDS011;41623;46.104;19.656;2022-12-10T07:25:33;8.25;;;5.70;;
55718;SDS011;41623;46.104;19.656;2022-12-10T07:27:59;10.60;;;6.15;;
55718;SDS011;41623;46.104;19.656;2022-12-10T07:30:25;24.00;;;10.43;;
55718;SDS011;41623;46.104;19.656;2022-12-10T07:32:52;15.45;;;7.18;;
55718;SDS011;41623;46.104;19.656;2022-12-10T07:35:18;24.63;;;8.50;;
55718;SDS011;41623;46.104;19.656;2022-12-10T07:37:44;18.33;;;7.70;;
55718;SDS011;41623;46.104;19.656;2022-12-10T07:40:10;18.77;;;8.45;;
55718;SDS011;41623;46.104;19.656;2022-12-10T07:42:36;15.73;;;9.57;;
55718;SDS011;41623;46.104;19.656;2022-12-10T07:45:02;14.05;;;8.70;;
55718;SDS011;41623;46.104;19.656;2022-12-10T07:47:29;15.10;;;8.20;;
55718;SDS011;41623;46.104;19.656;2022-12-10T07:49:55;16.13;;;8.50;;
55718;SDS011;41623;46.104;19.656;2022-12-10T07:52:21;14.80;;;8.32;;
55718;SDS011;41623;46.104;19.656;2022-12-10T07:54:47;12.07;;;7.30;;
55718;SDS011;41623;46.104;19.656;2022-12-10T07:57:13;22.95;;;8.02;;
55718;SDS011;41623;46.104;19.656;2022-12-10T07:59:40;11.25;;;6.60;;
55718;SDS011;41623;46.104;19.656;2022-12-10T08:02:07;9.85;;;5.78;;
55718;SDS011;41623;46.104;19.656;2022-12-10T08:04:33;9.70;;;4.93;;
55718;SDS011;41623;46.104;19.656;2022-12-10T08:06:59;7.18;;;4.18;;
55718;SDS011;41623;46.104;19.656;2022-12-10T08:09:25;5.15;;;3.58;;
55718;SDS011;41623;46.104;19.656;2022-12-10T08:11:52;3.20;;;2.80;;
55718;SDS011;41623;46.104;19.656;2022-12-10T08:14:18;4.22;;;2.67;;
55718;SDS011;41623;46.104;19.656;2022-12-10T08:16:44;3.95;;;2.65;;
55718;SDS011;41623;46.104;19.656;2022-12-10T08:19:10;5.03;;;3.53;;
55718;SDS011;41623;46.104;19.656;2022-12-10T08:21:36;7.10;;;4.90;;
55718;SDS011;41623;46.104;19.656;2022-12-10T08:24:02;4.13;;;2.83;;
55718;SDS011;41623;46.104;19.656;2022-12-10T08:26:30;4.25;;;3.08;;
55718;SDS011;41623;46.104;19.656;2022-12-10T08:28:56;4.28;;;3.15;;
55718;SDS011;41623;46.104;19.656;2022-12-10T08:31:23;5.05;;;3.85;;
55718;SDS011;41623;46.104;19.656;2022-12-10T08:33:49;6.47;;;2.95;;
55718;SDS011;41623;46.104;19.656;2022-12-10T08:36:16;5.45;;;3.35;;
55718;SDS011;41623;46.104;19.656;2022-12-10T08:38:43;3.95;;;3.20;;
55718;SDS011;41623;46.104;19.656;2022-12-10T08:41:10;7.72;;;3.78;;
55718;SDS011;41623;46.104;19.656;2022-12-10T08:43:37;7.32;;;3.92;;
55718;SDS011;41623;46.104;19.656;2022-12-10T08:46:03;5.53;;;3.13;;
55718;SDS011;41623;46.104;19.656;2022-12-10T08:48:29;3.10;;;2.53;;
55718;SDS011;41623;46.104;19.656;2022-12-10T08:50:55;5.47;;;3.47;;
55718;SDS011;41623;46.104;19.656;2022-12-10T08:53:22;5.35;;;2.83;;
55718;SDS011;41623;46.104;19.656;2022-12-10T08:55:52;7.75;;;3.60;;
55718;SDS011;41623;46.104;19.656;2022-12-10T08:58:18;4.70;;;2.65;;
55718;SDS011;41623;46.104;19.656;2022-12-10T09:00:45;7.43;;;2.97;;
55718;SDS011;41623;46.104;19.656;2022-12-10T09:03:11;4.68;;;2.50;;
55718;SDS011;41623;46.104;19.656;2022-12-10T09:05:37;8.25;;;3.50;;
55718;SDS011;41623;46.104;19.656;2022-12-10T09:08:03;5.68;;;3.00;;
55718;SDS011;41623;46.104;19.656;2022-12-10T09:10:29;5.50;;;2.75;;
55718;SDS011;41623;46.104;19.656;2022-12-10T09:12:55;4.78;;;3.05;;
55718;SDS011;41623;46.104;19.656;2022-12-10T09:15:22;6.78;;;3.25;;
55718;SDS011;41623;46.104;19.656;2022-12-10T09:17:48;2.58;;;2.05;;
55718;SDS011;41623;46.104;19.656;2022-12-10T09:20:14;4.50;;;2.38;;
55718;SDS011;41623;46.104;19.656;2022-12-10T09:22:40;6.80;;;3.50;;
55718;SDS011;41623;46.104;19.656;2022-12-10T09:25:07;8.82;;;3.30;;
55718;SDS011;41623;46.104;19.656;2022-12-10T09:27:34;5.70;;;3.83;;
55718;SDS011;41623;46.104;19.656;2022-12-10T09:30:02;6.70;;;3.65;;
55718;SDS011;41623;46.104;19.656;2022-12-10T09:32:28;8.90;;;4.28;;
55718;SDS011;41623;46.104;19.656;2022-12-10T09:34:55;7.40;;;5.13;;
55718;SDS011;41623;46.104;19.656;2022-12-10T09:37:21;6.32;;;3.50;;
55718;SDS011;41623;46.104;19.656;2022-12-10T09:39:47;10.13;;;3.47;;
55718;SDS011;41623;46.104;19.656;2022-12-10T09:42:26;4.88;;;3.53;;
55718;SDS011;41623;46.104;19.656;2022-12-10T09:50:20;5.25;;;3.42;;
55718;SDS011;41623;46.104;19.656;2022-12-10T09:52:47;4.85;;;3.05;;
55718;SDS011;41623;46.104;19.656;2022-12-10T09:55:19;8.45;;;4.32;;
55718;SDS011;41623;46.104;19.656;2022-12-10T09:57:50;4.45;;;2.55;;
55718;SDS011;41623;46.104;19.656;2022-12-10T10:00:18;2.30;;;2.08;;
55718;SDS011;41623;46.104;19.656;2022-12-10T10:02:44;9.98;;;4.32;;
55718;SDS011;41623;46.104;19.656;2022-12-10T10:05:13;4.70;;;3.35;;
55718;SDS011;41623;46.104;19.656;2022-12-10T10:07:45;6.82;;;4.55;;
55718;SDS011;41623;46.104;19.656;2022-12-10T10:10:19;5.18;;;3.22;;
55718;SDS011;41623;46.104;19.656;2022-12-10T10:12:45;5.78;;;3.00;;
55718;SDS011;41623;46.104;19.656;2022-12-10T10:15:13;4.13;;;2.80;;
55718;SDS011;41623;46.104;19.656;2022-12-10T10:17:39;4.82;;;2.53;;
55718;SDS011;41623;46.104;19.656;2022-12-10T10:20:10;3.63;;;2.30;;
55718;SDS011;41623;46.104;19.656;2022-12-10T10:22:37;5.05;;;3.33;;
55718;SDS011;41623;46.104;19.656;2022-12-10T10:25:03;2.55;;;2.35;;
55718;SDS011;41623;46.104;19.656;2022-12-10T10:27:31;4.15;;;2.92;;
55718;SDS011;41623;46.104;19.656;2022-12-10T10:29:59;4.32;;;3.20;;
55718;SDS011;41623;46.104;19.656;2022-12-10T10:34:53;5.25;;;3.42;;
55718;SDS011;41623;46.104;19.656;2022-12-10T10:37:21;7.75;;;3.88;;
55718;SDS011;41623;46.104;19.656;2022-12-10T10:39:48;4.90;;;3.38;;
55718;SDS011;41623;46.104;19.656;2022-12-10T10:42:21;3.83;;;3.00;;
55718;SDS011;41623;46.104;19.656;2022-12-10T10:44:48;7.95;;;3.92;;
55718;SDS011;41623;46.104;19.656;2022-12-10T10:47:28;5.30;;;2.72;;
55718;SDS011;41623;46.104;19.656;2022-12-10T10:49:55;5.15;;;3.22;;
55718;SDS011;41623;46.104;19.656;2022-12-10T10:52:21;5.60;;;3.40;;
55718;SDS011;41623;46.104;19.656;2022-12-10T10:54:48;7.32;;;4.00;;
55718;SDS011;41623;46.104;19.656;2022-12-10T10:57:19;10.48;;;4.38;;
55718;SDS011;41623;46.104;19.656;2022-12-10T11:04:47;3.55;;;2.60;;
55718;SDS011;41623;46.104;19.656;2022-12-10T11:09:55;9.15;;;3.92;;
55718;SDS011;41623;46.104;19.656;2022-12-10T11:12:38;3.75;;;2.45;;
55718;SDS011;41623;46.104;19.656;2022-12-10T11:18:00;4.15;;;2.70;;
55718;SDS011;41623;46.104;19.656;2022-12-10T11:20:31;3.65;;;2.85;;
55718;SDS011;41623;46.104;19.656;2022-12-10T11:22:59;14.35;;;6.85;;
55718;SDS011;41623;46.104;19.656;2022-12-10T11:28:15;4.35;;;3.40;;
55718;SDS011;41623;46.104;19.656;2022-12-10T11:33:15;2.17;;;1.67;;
55718;SDS011;41623;46.104;19.656;2022-12-10T11:40:48;2.53;;;2.05;;
55718;SDS011;41623;46.104;19.656;2022-12-10T11:43:37;5.43;;;3.65;;
55718;SDS011;41623;46.104;19.656;2022-12-10T11:58:48;5.95;;;3.40;;
55718;SDS011;41623;46.104;19.656;2022-12-10T12:15:03;4.57;;;2.83;;
55718;SDS011;41623;46.104;19.656;2022-12-10T12:17:30;4.80;;;2.75;;
55718;SDS011;41623;46.104;19.656;2022-12-10T12:20:08;2.63;;;1.92;;
55718;SDS011;41623;46.104;19.656;2022-12-10T12:22:42;5.10;;;2.42;;
55718;SDS011;41623;46.104;19.656;2022-12-10T12:27:55;5.60;;;3.53;;
55718;SDS011;41623;46.104;19.656;2022-12-10T12:30:24;3.40;;;1.67;;
55718;SDS011;41623;46.104;19.656;2022-12-10T12:35:28;3.92;;;2.55;;
55718;SDS011;41623;46.104;19.656;2022-12-10T12:37:58;3.28;;;2.85;;
55718;SDS011;41623;46.104;19.656;2022-12-10T12:40:27;5.45;;;2.67;;
55718;SDS011;41623;46.104;19.656;2022-12-10T12:42:56;2.90;;;2.08;;
55718;SDS011;41623;46.104;19.656;2022-12-10T12:45:34;4.13;;;2.47;;
55718;SDS011;41623;46.104;19.656;2022-12-10T12:50:42;5.85;;;2.78;;
55718;SDS011;41623;46.104;19.656;2022-12-10T12:53:11;2.83;;;2.42;;
55718;SDS011;41623;46.104;19.656;2022-12-10T12:58:15;2.58;;;2.10;;
55718;SDS011;41623;46.104;19.656;2022-12-10T13:00:43;4.45;;;1.88;;
55718;SDS011;41623;46.104;19.656;2022-12-10T13:05:41;3.75;;;2.35;;
55718;SDS011;41623;46.104;19.656;2022-12-10T13:13:34;4.65;;;3.03;;
55718;SDS011;41623;46.104;19.656;2022-12-10T13:16:33;9.45;;;3.10;;
55718;SDS011;41623;46.104;19.656;2022-12-10T13:22:03;3.63;;;1.92;;
55718;SDS011;41623;46.104;19.656;2022-12-10T13:24:44;5.00;;;3.65;;
55718;SDS011;41623;46.104;19.656;2022-12-10T13:32:20;5.35;;;3.63;;
55718;SDS011;41623;46.104;19.656;2022-12-10T13:35:15;3.22;;;2.72;;
55718;SDS011;41623;46.104;19.656;2022-12-10T13:49:12;6.35;;;3.13;;
55718;SDS011;41623;46.104;19.656;2022-12-10T13:54:19;2.75;;;1.90;;
55718;SDS011;41623;46.104;19.656;2022-12-10T14:04:52;4.50;;;3.00;;
55718;SDS011;41623;46.104;19.656;2022-12-10T14:07:26;5.05;;;2.85;;
55718;SDS011;41623;46.104;19.656;2022-12-10T14:09:53;6.07;;;3.08;;
55718;SDS011;41623;46.104;19.656;2022-12-10T14:14:47;6.32;;;3.38;;
55718;SDS011;41623;46.104;19.656;2022-12-10T14:17:15;7.15;;;3.70;;
55718;SDS011;41623;46.104;19.656;2022-12-10T14:19:44;6.45;;;3.58;;
55718;SDS011;41623;46.104;19.656;2022-12-10T14:22:13;4.70;;;3.42;;
55718;SDS011;41623;46.104;19.656;2022-12-10T14:24:41;8.73;;;3.20;;
55718;SDS011;41623;46.104;19.656;2022-12-10T14:27:15;3.15;;;2.60;;
55718;SDS011;41623;46.104;19.656;2022-12-10T14:29:48;9.02;;;3.25;;
55718;SDS011;41623;46.104;19.656;2022-12-10T14:32:15;5.57;;;2.80;;
55718;SDS011;41623;46.104;19.656;2022-12-10T14:34:51;5.88;;;4.05;;
55718;SDS011;41623;46.104;19.656;2022-12-10T14:37:18;4.28;;;2.45;;
55718;SDS011;41623;46.104;19.656;2022-12-10T14:39:46;3.42;;;2.63;;
55718;SDS011;41623;46.104;19.656;2022-12-10T14:42:12;3.58;;;2.55;;
55718;SDS011;41623;46.104;19.656;2022-12-10T14:44:41;8.65;;;3.63;;
55718;SDS011;41623;46.104;19.656;2022-12-10T14:47:14;9.43;;;3.00;;
55718;SDS011;41623;46.104;19.656;2022-12-10T14:49:42;2.65;;;2.10;;
55718;SDS011;41623;46.104;19.656;2022-12-10T14:52:13;10.23;;;3.78;;
55718;SDS011;41623;46.104;19.656;2022-12-10T14:54:40;5.50;;;2.92;;
55718;SDS011;41623;46.104;19.656;2022-12-10T14:57:07;3.38;;;2.25;;
55718;SDS011;41623;46.104;19.656;2022-12-10T15:02:24;2.85;;;2.08;;
55718;SDS011;41623;46.104;19.656;2022-12-10T15:04:51;4.47;;;2.70;;
55718;SDS011;41623;46.104;19.656;2022-12-10T15:07:22;2.80;;;2.17;;
55718;SDS011;41623;46.104;19.656;2022-12-10T15:09:48;1.60;;;1.50;;
55718;SDS011;41623;46.104;19.656;2022-12-10T15:12:32;3.17;;;2.22;;
55718;SDS011;41623;46.104;19.656;2022-12-10T15:15:04;1.70;;;1.60;;
55718;SDS011;41623;46.104;19.656;2022-12-10T15:17:33;1.75;;;1.65;;
55718;SDS011;41623;46.104;19.656;2022-12-10T15:20:00;4.88;;;2.10;;
55718;SDS011;41623;46.104;19.656;2022-12-10T15:22:26;1.60;;;1.42;;
55718;SDS011;41623;46.104;19.656;2022-12-10T15:24:53;4.25;;;1.92;;
55718;SDS011;41623;46.104;19.656;2022-12-10T15:27:23;2.75;;;2.38;;
55718;SDS011;41623;46.104;19.656;2022-12-10T15:29:50;2.38;;;1.75;;
55718;SDS011;41623;46.104;19.656;2022-12-10T15:32:20;6.40;;;2.05;;
55718;SDS011;41623;46.104;19.656;2022-12-10T15:34:48;3.72;;;2.58;;
55718;SDS011;41623;46.104;19.656;2022-12-10T15:37:16;4.38;;;3.03;;
55718;SDS011;41623;46.104;19.656;2022-12-10T15:39:44;4.47;;;2.67;;
55718;SDS011;41623;46.104;19.656;2022-12-10T15:42:27;3.85;;;2.55;;
55718;SDS011;41623;46.104;19.656;2022-12-10T15:44:59;2.67;;;1.95;;
55718;SDS011;41623;46.104;19.656;2022-12-10T15:47:27;3.67;;;2.40;;
55718;SDS011;41623;46.104;19.656;2022-12-10T15:49:54;5.85;;;2.78;;
55718;SDS011;41623;46.104;19.656;2022-12-10T15:52:28;2.83;;;2.20;;
55718;SDS011;41623;46.104;19.656;2022-12-10T15:59:59;2.85;;;1.50;;
55718;SDS011;41623;46.104;19.656;2022-12-10T16:05:23;4.30;;;2.55;;
55718;SDS011;41623;46.104;19.656;2022-12-10T16:07:50;13.68;;;4.57;;
55718;SDS011;41623;46.104;19.656;2022-12-10T16:10:18;7.10;;;3.67;;
55718;SDS011;41623;46.104;19.656;2022-12-10T16:12:45;12.23;;;4.95;;
55718;SDS011;41623;46.104;19.656;2022-12-10T16:15:15;10.90;;;4.13;;
55718;SDS011;41623;46.104;19.656;2022-12-10T16:17:41;4.53;;;2.83;;
55718;SDS011;41623;46.104;19.656;2022-12-10T16:20:18;6.22;;;3.70;;
55718;SDS011;41623;46.104;19.656;2022-12-10T16:22:44;6.55;;;3.58;;
55718;SDS011;41623;46.104;19.656;2022-12-10T16:25:11;3.50;;;2.50;;
55718;SDS011;41623;46.104;19.656;2022-12-10T16:27:37;3.33;;;2.40;;
55718;SDS011;41623;46.104;19.656;2022-12-10T16:32:40;7.05;;;2.90;;
55718;SDS011;41623;46.104;19.656;2022-12-10T16:35:06;4.03;;;2.50;;
55718;SDS011;41623;46.104;19.656;2022-12-10T16:37:32;5.65;;;3.42;;
55718;SDS011;41623;46.104;19.656;2022-12-10T16:39:58;3.20;;;2.35;;
55718;SDS011;41623;46.104;19.656;2022-12-10T16:42:25;3.17;;;2.53;;
55718;SDS011;41623;46.104;19.656;2022-12-10T16:44:51;7.10;;;3.67;;
55718;SDS011;41623;46.104;19.656;2022-12-10T16:47:17;6.20;;;2.45;;
55718;SDS011;41623;46.104;19.656;2022-12-10T16:49:43;3.13;;;2.38;;
55718;SDS011;41623;46.104;19.656;2022-12-10T16:52:15;3.05;;;1.98;;
55718;SDS011;41623;46.104;19.656;2022-12-10T16:54:42;4.45;;;2.50;;
55718;SDS011;41623;46.104;19.656;2022-12-10T16:57:14;5.60;;;2.00;;
55718;SDS011;41623;46.104;19.656;2022-12-10T16:59:40;2.63;;;2.38;;
55718;SDS011;41623;46.104;19.656;2022-12-10T17:02:16;3.15;;;2.85;;
55718;SDS011;41623;46.104;19.656;2022-12-10T17:04:43;6.85;;;3.38;;